Terminal Aerodrome Forecast
Issued by NWS Boston, MA

Home | Current Version | Previous Version | Text Only | Print | Product List | Glossary On
Versions: 1 2 3 4 5 6 7 8 9 10 11 12 13 14 15 16 17 18 19 20 21 22 23 24 25 26 27 28 29 30 31 32 33 34 35 36 37 38 39 40
797
FTUS41 KBOX 130540
TAFPVD
TAF
KPVD 130540Z 1306/1406 27005KT P6SM VCSH OVC050
     FM130700 27004KT P6SM OVC060
     FM131300 30008KT P6SM BKN045
     FM131400 31013G25KT P6SM BKN045
     FM131500 31016G34KT P6SM BKN035
     FM131900 31019G37KT P6SM SCT040=

USA.gov is the U.S. government's official web portal to all federal, state and local government web resources and services.